METAR Reports

Area Airport Weather Conditions

KBDL - Windsor Locks, Connecticut, USA
Distance from station: NE 45mi, 72km
Updated: 7:51AM EDT, September 19, 2019
Clear
Clear
 Wind from N
Wind: N 5 mph , 7 km/h
Temperature: 45°F , 7°C
Wind Chill: 42°F , 6°C
Dew Point: 41°F , 5°C
Humidity: 87%
Barometer: 30.36 inHg , 1028.1 hPa
Clouds: Clear
Visibility: 10 miles , 16 km
2019/09/19 11:51 KBDL 191151Z 01004KT 10SM CLR 07/05 A3036 RMK AO2 SLP282 T00720050 10072 20033 53007
KDXR - Danbury, Connecticut, USA
Distance from station: SSW 15mi, 24km
Updated: 7:53AM EDT, September 19, 2019
Clear
Clear
 Wind from calm
Wind: Calm
Temperature: 43°F , 6°C
Dew Point: 39°F , 4°C
Humidity: 87%
Barometer: 30.37 inHg , 1028.4 hPa
Clouds: Clear
Visibility: 10 miles , 16 km
2019/09/19 11:53 KDXR 191153Z 00000KT 10SM CLR 06/04 A3037 RMK AO2 SLP285 T00560039 10056 20022 51010
 
KOXC - Oxford/Waterbury, Connecticut, USA
Distance from station: ESE 16mi, 26km
Updated: 7:51AM EDT, September 19, 2019
Clear
Clear
 Wind from N
Wind: N 5 mph , 7 km/h
Temperature: 45°F , 7°C
Wind Chill: 42°F , 6°C
Dew Point: 41°F , 5°C
Humidity: 87%
Barometer: 30.36 inHg , 1028.1 hPa
Clouds: Clear
Visibility: 10 miles , 16 km
2019/09/19 11:51 KOXC 191151Z 36004KT 10SM CLR 07/05 A3036 RMK AO2 SLP297 T00670050 10072 20033 53011
KPOU - Poughkeepsie, New York, USA
Distance from station: W 25mi, 40km
Updated: 7:53AM EDT, September 19, 2019
Clear
Clear
 Wind from calm
Wind: Calm
Temperature: 43°F , 6°C
Dew Point: 39°F , 4°C
Humidity: 87%
Barometer: 30.37 inHg , 1028.4 hPa
Clouds: Clear
Visibility: 10 miles , 16 km
2019/09/19 11:53 KPOU 191153Z AUTO 00000KT 10SM CLR 06/04 A3037 RMK AO2 SLP280 T00560044 10067 20033 53008
 
KMMK - Meriden, Connecticut, USA
Distance from station: E 30mi, 48km
Updated: 7:53AM EDT, September 19, 2019
Clear
Clear
 Wind from NW
Wind: NW 3 mph , 6 km/h
Temperature: 45°F , 7°C
Dew Point: 41°F , 5°C
Humidity: 87%
Barometer: 30.36 inHg , 1028.1 hPa
Clouds: Clear
Visibility: 10 miles , 16 km
2019/09/19 11:53 KMMK 191153Z AUTO 32003KT 10SM CLR 07/05 A3036 RMK AO2 SLP283 T00720050 10072 20033 53008
KBDR - Bridgeport, Connecticut, USA
Distance from station: SSE 32mi, 51km
Updated: 7:52AM EDT, September 19, 2019
Clear
Clear
 Wind from N
Wind: N 7 mph , 11 km/h
Temperature: 50°F , 10°C
Wind Chill: 47°F , 8°C
Dew Point: 43°F , 6°C
Humidity: 76%
Barometer: 30.35 inHg , 1027.8 hPa
Clouds: Clear
Visibility: 10 miles , 16 km
2019/09/19 11:52 KBDR 191152Z 36006KT 10SM CLR 10/06 A3035 RMK AO2 SLP278 T01000056 10106 20083 53008 $
 
KHVN - New Haven/Tweed, Connecticut, USA
Distance from station: SE 35mi, 57km
Updated: 7:53AM EDT, September 19, 2019
Clear
Clear
 Wind from N
Wind: N 7 mph , 11 km/h
Temperature: 48°F , 9°C
Wind Chill: 45°F , 7°C
Dew Point: 45°F , 7°C
Humidity: 87%
Barometer: 30.36 inHg , 1028.1 hPa
Clouds: Clear
Visibility: 10 miles , 16 km
2019/09/19 11:53 KHVN 191153Z 01006KT 10SM CLR 09/07 A3036 RMK AO2 SLP279 T00940067 10094 20067 53008
KSWF - Newburgh/Stewart, New York, USA
Distance from station: W 35mi, 57km
Updated: 7:45AM EDT, September 19, 2019
Partial fog, Clear
Partial fog, Clear
 Wind from calm
Wind: Calm
Temperature: 43°F , 6°C
Dew Point: 43°F , 6°C
Humidity: 100%
Barometer: 30.36 inHg , 1028.1 hPa
Summary: Partial Fog
Clouds: Clear
Visibility: 10 miles , 16 km
2019/09/19 11:45 KSWF 191145Z 00000KT 10SM PRFG SKC 06/06 A3036
 
KHPN - White Plains, New York, USA
Distance from station: SSW 38mi, 62km
Updated: 6:56AM EDT, September 19, 2019
Clear
Clear
 Wind from NNW
Wind: NNW 8 mph , 13 km/h
Temperature: 43°F , 6°C
Wind Chill: 38°F , 3°C
Dew Point: 39°F , 4°C
Humidity: 87%
Barometer: 30.34 inHg , 1027.4 hPa
Clouds: Clear
Visibility: 10 miles , 16 km
2019/09/19 10:56 KHPN 191056Z 34007KT 10SM CLR 06/04 A3034 RMK AO2 SLP276 T00610039
KHFD - Hartford/Brainar, Connecticut, USA
Distance from station: ENE 41mi, 65km
Updated: 7:53AM EDT, September 19, 2019
Clear
Clear
 Wind from NE
Wind: NE 5 mph , 7 km/h
Temperature: 46°F , 8°C
Wind Chill: 44°F , 7°C
Dew Point: 43°F , 6°C
Humidity: 87%
Barometer: 30.37 inHg , 1028.4 hPa
Clouds: Clear
Visibility: 10 miles , 16 km
2019/09/19 11:53 KHFD 191153Z 05004KT 10SM CLR 08/06 A3037 RMK AO2 SLP283 T00780056 10083 20050 53009